createdAt,value
2017-06-26T00:01:02.047Z,97583.95
2017-06-26T00:03:29.515Z,97584.69
2017-06-26T00:05:57.045Z,97587.10
2017-06-26T00:08:24.488Z,97585.97
2017-06-26T00:10:51.943Z,97579.69
2017-06-26T00:13:19.390Z,97583.53
2017-06-26T00:15:49.563Z,97587.94
2017-06-26T00:18:16.995Z,97579.36
2017-06-26T00:20:44.426Z,97579.93
2017-06-26T00:23:11.829Z,97579.02
2017-06-26T00:25:39.289Z,97574.83
2017-06-26T00:28:06.716Z,97573.52
2017-06-26T00:30:34.136Z,97574.92
2017-06-26T00:33:02.364Z,97579.50
2017-06-26T00:35:29.789Z,97573.25
2017-06-26T00:37:57.243Z,97569.55
2017-06-26T00:40:24.691Z,97572.77
2017-06-26T00:42:52.246Z,97569.12
2017-06-26T00:45:19.931Z,97574.63
2017-06-26T00:47:47.420Z,97572.62
2017-06-26T00:50:14.858Z,97571.38
2017-06-26T00:52:42.736Z,97575.81
2017-06-26T00:55:10.195Z,97577.53
2017-06-26T00:57:37.599Z,97575.76
2017-06-26T01:00:05.012Z,97579.36
2017-06-26T01:02:32.466Z,97578.48
2017-06-26T01:05:00.448Z,97578.23
2017-06-26T01:07:27.907Z,97567.09
2017-06-26T01:09:56.101Z,97568.77
2017-06-26T01:12:23.499Z,97566.64
2017-06-26T01:14:50.990Z,97565.89
2017-06-26T01:17:18.407Z,97572.77
2017-06-26T01:19:45.808Z,97571.06
2017-06-26T01:22:13.275Z,97573.35
2017-06-26T01:24:40.689Z,97567.27
2017-06-26T01:27:08.096Z,97569.16
2017-06-26T01:29:35.632Z,97565.56
2017-06-26T01:32:04.209Z,97559.41
2017-06-26T01:34:31.617Z,97557.16
2017-06-26T01:36:59.066Z,97555.74
2017-06-26T01:39:26.612Z,97557.33
2017-06-26T01:41:54.087Z,97555.39
2017-06-26T01:44:21.621Z,97553.20
2017-06-26T01:46:49.035Z,97551.12
2017-06-26T01:49:16.436Z,97546.07
2017-06-26T01:51:43.909Z,97546.91
2017-06-26T01:54:11.323Z,97553.72
2017-06-26T01:56:38.832Z,97548.49
2017-06-26T01:59:06.255Z,97550.55
2017-06-26T02:01:34.670Z,97545.49
2017-06-26T02:04:02.113Z,97542.02
2017-06-26T02:06:29.568Z,97540.86
2017-06-26T02:08:56.968Z,97538.31
2017-06-26T02:11:24.378Z,97538.80
2017-06-26T02:13:51.822Z,97533.64
2017-06-26T02:16:19.211Z,97542.49
2017-06-26T02:18:46.654Z,97542.05
2017-06-26T02:21:14.108Z,97538.33
2017-06-26T02:23:42.554Z,97537.53
2017-06-26T02:26:10.024Z,97538.86
2017-06-26T02:28:37.499Z,97533.18
2017-06-26T02:31:04.927Z,97534.97
2017-06-26T02:33:32.335Z,97533.52
2017-06-26T02:35:59.775Z,97533.02
2017-06-26T02:38:27.207Z,97533.99
2017-06-26T02:40:54.758Z,97527.78
2017-06-26T02:43:22.337Z,97533.08
2017-06-26T02:45:49.793Z,97532.17
2017-06-26T02:48:21.152Z,97536.08
2017-06-26T02:50:48.571Z,97543.44
2017-06-26T02:53:16.030Z,97538.45
2017-06-26T02:55:43.431Z,97541.63
2017-06-26T02:58:10.840Z,97534.37
2017-06-26T03:00:38.397Z,97536.23
2017-06-26T03:03:05.795Z,97523.70
2017-06-26T03:05:33.219Z,97524.48
2017-06-26T03:08:00.662Z,97525.55
2017-06-26T03:10:28.061Z,97526.01
2017-06-26T03:12:55.571Z,97529.22
2017-06-26T03:15:23.120Z,97522.63
2017-06-26T03:17:50.567Z,97528.34
2017-06-26T03:20:17.971Z,97518.02
2017-06-26T03:22:45.449Z,97520.91
2017-06-26T03:25:12.888Z,97521.88
2017-06-26T03:27:40.293Z,97519.09
2017-06-26T03:30:07.732Z,97523.52
2017-06-26T03:32:35.240Z,97519.83
2017-06-26T03:35:03.154Z,97520.76
2017-06-26T03:37:30.608Z,97528.07
2017-06-26T03:40:01.040Z,97526.25
2017-06-26T03:42:28.462Z,97528.75
2017-06-26T03:44:56.644Z,97530.23
2017-06-26T03:47:24.091Z,97530.56
2017-06-26T03:49:55.391Z,97528.24
2017-06-26T03:52:22.792Z,97519.96
2017-06-26T03:54:50.331Z,97519.50
2017-06-26T03:57:17.736Z,97528.35
2017-06-26T03:59:45.673Z,97526.73
2017-06-26T04:02:13.175Z,97525.98
2017-06-26T04:04:41.516Z,97534.04
2017-06-26T04:07:09.015Z,97521.63
2017-06-26T04:09:36.428Z,97527.48
2017-06-26T04:12:03.876Z,97524.48
2017-06-26T04:14:31.367Z,97534.97
2017-06-26T04:16:58.777Z,97532.58
2017-06-26T04:19:26.268Z,97539.87
2017-06-26T04:21:53.680Z,97534.04
2017-06-26T04:24:21.139Z,97533.70
2017-06-26T04:26:49.667Z,97531.37
2017-06-26T04:29:19.071Z,97534.42
2017-06-26T04:31:46.495Z,97536.55
2017-06-26T04:34:13.954Z,97540.02
2017-06-26T04:36:41.387Z,97531.91
2017-06-26T04:39:12.524Z,97538.31
2017-06-26T04:41:44.348Z,97539.31
2017-06-26T04:44:11.802Z,97545.22
2017-06-26T04:46:39.224Z,97540.94
2017-06-26T04:49:06.683Z,97541.28
2017-06-26T04:51:34.118Z,97544.19
2017-06-26T04:54:01.583Z,97546.91
2017-06-26T04:56:29.059Z,97546.53
2017-06-26T04:58:56.467Z,97549.02
2017-06-26T05:01:26.577Z,97542.87
2017-06-26T05:03:54.030Z,97535.31
2017-06-26T05:06:21.570Z,97537.69
2017-06-26T05:08:49.039Z,97540.96
2017-06-26T05:11:16.554Z,97541.13
2017-06-26T05:13:43.977Z,97540.81
2017-06-26T05:16:11.438Z,97541.13
2017-06-26T05:18:42.840Z,97535.77
2017-06-26T05:21:10.244Z,97544.22
2017-06-26T05:23:37.740Z,97537.14
2017-06-26T05:26:05.173Z,97542.99
2017-06-26T05:28:32.620Z,97537.36
2017-06-26T05:31:00.052Z,97531.67
2017-06-26T05:33:27.452Z,97530.92
2017-06-26T05:35:54.932Z,97527.31
2017-06-26T05:38:22.470Z,97528.84
2017-06-26T05:40:50.019Z,97530.49
2017-06-26T05:43:17.468Z,97534.62
2017-06-26T05:45:44.884Z,97541.52
2017-06-26T05:48:12.319Z,97532.95
2017-06-26T05:50:39.803Z,97536.96
2017-06-26T05:53:07.258Z,97534.55
2017-06-26T05:55:43.604Z,97530.67
2017-06-26T05:58:11.039Z,97529.41
2017-06-26T06:00:41.387Z,97529.66
2017-06-26T06:03:09.816Z,97528.09
2017-06-26T06:05:37.263Z,97527.38
2017-06-26T06:08:05.709Z,97526.26
2017-06-26T06:10:33.137Z,97528.19
2017-06-26T06:13:00.588Z,97519.16
2017-06-26T06:15:27.994Z,97516.55
2017-06-26T06:17:55.421Z,97507.27
2017-06-26T06:20:22.848Z,97504.34
2017-06-26T06:22:50.309Z,97506.98
2017-06-26T06:25:17.913Z,97512.98
2017-06-26T06:27:45.568Z,97524.34
2017-06-26T06:30:15.003Z,97516.87
2017-06-26T06:32:42.623Z,97515.53
2017-06-26T06:35:10.060Z,97519.45
2017-06-26T06:37:37.733Z,97511.44
2017-06-26T06:40:05.137Z,97515.70
2017-06-26T06:42:32.570Z,97508.02
2017-06-26T06:45:02.407Z,97502.55
2017-06-26T06:47:29.897Z,97493.20
2017-06-26T06:49:57.287Z,97498.63
2017-06-26T06:52:24.715Z,97492.27
2017-06-26T06:54:52.180Z,97506.27
2017-06-26T06:57:25.399Z,97504.77
2017-06-26T06:59:56.677Z,97505.43
2017-06-26T07:02:24.127Z,97505.64
2017-06-26T07:04:51.544Z,97498.95
2017-06-26T07:07:18.959Z,97500.56
2017-06-26T07:09:50.399Z,97489.42
2017-06-26T07:12:17.798Z,97480.80
2017-06-26T07:14:46.838Z,97483.40
2017-06-26T07:17:14.248Z,97482.49
2017-06-26T07:19:41.904Z,97486.50
2017-06-26T07:22:09.343Z,97479.53
2017-06-26T07:24:36.767Z,97488.16
2017-06-26T07:27:04.215Z,97487.00
2017-06-26T07:29:31.764Z,97483.67
2017-06-26T07:31:59.172Z,97479.12
2017-06-26T07:34:26.607Z,97473.79
2017-06-26T07:36:54.071Z,97468.33
2017-06-26T07:39:21.496Z,97471.23
2017-06-26T07:41:48.949Z,97473.98
2017-06-26T07:44:16.987Z,97474.31
2017-06-26T07:46:53.319Z,97468.27
2017-06-26T07:49:20.765Z,97464.16
2017-06-26T07:51:48.187Z,97461.52
2017-06-26T07:54:15.651Z,97465.11
2017-06-26T07:56:43.068Z,97460.66
2017-06-26T07:59:10.489Z,97461.16
2017-06-26T08:01:37.952Z,97461.59
2017-06-26T08:04:05.384Z,97453.43
2017-06-26T08:06:32.863Z,97452.91
2017-06-26T08:09:01.252Z,97452.09
2017-06-26T08:11:28.695Z,97448.51
2017-06-26T08:13:56.106Z,97443.86
2017-06-26T08:16:23.628Z,97439.23
2017-06-26T08:18:51.424Z,97438.50
2017-06-26T08:21:18.882Z,97432.42
2017-06-26T08:23:46.325Z,97430.48
2017-06-26T08:26:13.819Z,97426.92
2017-06-26T08:28:41.301Z,97425.92
2017-06-26T08:31:08.753Z,97430.41
2017-06-26T08:33:36.236Z,97435.53
2017-06-26T08:36:03.704Z,97432.02
2017-06-26T08:38:31.123Z,97428.45
2017-06-26T08:40:58.933Z,97424.08
2017-06-26T08:43:26.353Z,97429.23
2017-06-26T08:45:55.657Z,97436.31
2017-06-26T08:48:23.129Z,97439.07
2017-06-26T08:50:50.650Z,97439.89
2017-06-26T08:53:18.203Z,97429.27
2017-06-26T08:55:45.871Z,97435.36
2017-06-26T08:58:15.779Z,97430.45
2017-06-26T09:00:43.320Z,97443.01
2017-06-26T09:03:10.992Z,97438.05
2017-06-26T09:05:38.407Z,97434.69
2017-06-26T09:08:07.024Z,97432.33
2017-06-26T09:10:34.792Z,97435.22
2017-06-26T09:13:03.285Z,97431.02
2017-06-26T09:15:30.772Z,97424.87
2017-06-26T09:18:00.538Z,97427.42
2017-06-26T09:20:32.895Z,97426.26
2017-06-26T09:23:00.336Z,97432.77
2017-06-26T09:25:28.057Z,97429.42
2017-06-26T09:27:55.570Z,97427.52
2017-06-26T09:30:23.035Z,97423.30
2017-06-26T09:32:52.299Z,97417.77
2017-06-26T09:35:19.715Z,97419.66
2017-06-26T09:37:47.299Z,97417.33
2017-06-26T09:40:14.724Z,97413.98
2017-06-26T09:42:42.255Z,97412.05
2017-06-26T09:45:10.066Z,97406.02
2017-06-26T09:47:38.099Z,97399.41
2017-06-26T09:50:05.558Z,97400.77
2017-06-26T09:52:33.553Z,97398.49
2017-06-26T09:55:00.972Z,97394.47
2017-06-26T09:57:28.480Z,97386.66
2017-06-26T09:59:55.959Z,97392.11
2017-06-26T10:02:23.477Z,97388.02
2017-06-26T10:04:51.037Z,97392.85
2017-06-26T10:07:18.610Z,97396.41
2017-06-26T10:09:46.048Z,97391.67
2017-06-26T10:12:13.658Z,97389.58
2017-06-26T10:14:41.145Z,97384.36
2017-06-26T10:17:08.546Z,97377.54
2017-06-26T10:19:36.009Z,97379.58
2017-06-26T10:22:03.595Z,97374.95
2017-06-26T10:24:31.090Z,97371.61
2017-06-26T10:26:58.568Z,97368.06
2017-06-26T10:29:26.057Z,97365.06
2017-06-26T10:31:53.550Z,97366.75
2017-06-26T10:34:21.042Z,97370.47
2017-06-26T10:36:48.472Z,97374.42
2017-06-26T10:39:15.952Z,97371.59
2017-06-26T10:41:43.394Z,97374.27
2017-06-26T10:44:10.805Z,97378.50
2017-06-26T10:46:38.353Z,97376.53
2017-06-26T10:49:05.957Z,97365.48
2017-06-26T10:51:33.444Z,97366.69
2017-06-26T10:54:01.006Z,97363.83
2017-06-26T10:56:28.456Z,97359.62
2017-06-26T10:58:58.805Z,97365.47
2017-06-26T11:01:31.576Z,97361.73
2017-06-26T11:03:59.063Z,97359.66
2017-06-26T11:06:26.546Z,97349.93
2017-06-26T11:08:54.834Z,97351.13
2017-06-26T11:11:22.379Z,97341.48
2017-06-26T11:13:49.840Z,97334.59
2017-06-26T11:16:18.020Z,97330.67
2017-06-26T11:18:45.467Z,97326.95
2017-06-26T11:21:12.920Z,97326.19
2017-06-26T11:23:40.418Z,97319.86
2017-06-26T11:26:07.917Z,97309.76
2017-06-26T11:28:35.456Z,97305.96
2017-06-26T11:31:02.876Z,97299.86
2017-06-26T11:33:30.479Z,97296.27
2017-06-26T11:35:58.007Z,97295.53
2017-06-26T11:38:25.467Z,97290.34
2017-06-26T11:40:52.954Z,97285.35
2017-06-26T11:43:20.647Z,97277.12
2017-06-26T11:45:48.100Z,97283.09
2017-06-26T11:48:15.671Z,97280.75
2017-06-26T11:50:43.104Z,97277.65
2017-06-26T11:53:10.707Z,97278.52
2017-06-26T11:55:38.198Z,97268.62
2017-06-26T11:58:05.830Z,97267.07
2017-06-26T12:00:33.282Z,97262.60
2017-06-26T12:03:00.770Z,97269.02
2017-06-26T12:05:28.227Z,97260.84
2017-06-26T12:07:55.726Z,97261.02
2017-06-26T12:10:23.239Z,97252.89
2017-06-26T12:12:50.772Z,97246.14
2017-06-26T12:15:18.256Z,97241.57
2017-06-26T12:17:45.773Z,97239.58
2017-06-26T12:20:13.314Z,97233.14
2017-06-26T12:22:40.833Z,97241.67
2017-06-26T12:25:08.250Z,97229.95
2017-06-26T12:27:35.724Z,97233.17
2017-06-26T12:30:03.408Z,97228.06
2017-06-26T12:32:32.575Z,97219.69
2017-06-26T12:35:03.508Z,97215.52
2017-06-26T12:37:32.565Z,97220.25
2017-06-26T12:40:01.314Z,97215.22
2017-06-26T12:42:30.384Z,97216.91
2017-06-26T12:44:57.855Z,97212.49
2017-06-26T12:47:26.880Z,97214.66
2017-06-26T12:49:55.831Z,97209.55
2017-06-26T12:52:23.881Z,97205.17
2017-06-26T12:54:51.436Z,97209.76
2017-06-26T12:57:19.043Z,97203.88
2017-06-26T12:59:46.770Z,97202.27
2017-06-26T13:02:14.377Z,97202.91
2017-06-26T13:04:42.839Z,97207.79
2017-06-26T13:07:10.368Z,97204.81
2017-06-26T13:09:37.930Z,97190.69
2017-06-26T13:12:05.488Z,97189.00
2017-06-26T13:14:33.370Z,97196.84
2017-06-26T13:17:01.025Z,97188.78
2017-06-26T13:19:28.483Z,97179.83
2017-06-26T13:21:55.912Z,97184.52
2017-06-26T13:24:23.392Z,97177.96
2017-06-26T13:26:51.531Z,97172.70
2017-06-26T13:29:18.978Z,97169.03
2017-06-26T13:31:46.549Z,97169.50
2017-06-26T13:34:15.652Z,97173.34
2017-06-26T13:36:43.161Z,97164.88
2017-06-26T13:39:10.635Z,97168.47
2017-06-26T13:41:38.192Z,97161.09
2017-06-26T13:44:05.712Z,97162.30
2017-06-26T13:46:33.288Z,97159.17
2017-06-26T13:49:02.793Z,97154.16
2017-06-26T13:51:32.986Z,97151.77
2017-06-26T13:54:00.398Z,97154.44
2017-06-26T13:56:27.873Z,97141.91
2017-06-26T13:58:55.346Z,97144.46
2017-06-26T14:01:22.791Z,97144.53
2017-06-26T14:03:50.289Z,97146.58
2017-06-26T14:06:17.729Z,97144.06
2017-06-26T14:08:45.152Z,97146.73
2017-06-26T14:11:12.612Z,97143.47
2017-06-26T14:13:40.036Z,97140.41
2017-06-26T14:16:07.479Z,97142.99
2017-06-26T14:18:35.030Z,97134.09
2017-06-26T14:21:02.476Z,97136.72
2017-06-26T14:23:30.452Z,97127.16
2017-06-26T14:25:57.924Z,97132.72
2017-06-26T14:28:25.435Z,97137.52
2017-06-26T14:30:52.852Z,97134.26
2017-06-26T14:33:20.319Z,97130.06
2017-06-26T14:35:47.777Z,97123.70
2017-06-26T14:38:15.181Z,97123.03
2017-06-26T14:40:42.609Z,97117.45
2017-06-26T14:43:10.037Z,97115.48
2017-06-26T14:45:37.475Z,97120.02
2017-06-26T14:48:04.957Z,97119.09
2017-06-26T14:50:32.364Z,97120.56
2017-06-26T14:52:59.823Z,97111.87
2017-06-26T14:55:27.248Z,97114.69
2017-06-26T14:57:54.652Z,97111.61
2017-06-26T15:00:22.122Z,97110.19
2017-06-26T15:02:49.600Z,97106.52
2017-06-26T15:05:17.015Z,97103.86
2017-06-26T15:07:44.657Z,97104.97
2017-06-26T15:10:12.200Z,97103.89
2017-06-26T15:12:39.883Z,97104.64
2017-06-26T15:15:07.346Z,97097.69
2017-06-26T15:17:34.812Z,97097.59
2017-06-26T15:20:02.282Z,97092.33
2017-06-26T15:22:29.695Z,97092.09
2017-06-26T15:24:57.122Z,97096.19
2017-06-26T15:27:24.572Z,97094.83
2017-06-26T15:29:52.063Z,97094.73
2017-06-26T15:32:19.567Z,97085.19
2017-06-26T15:34:46.976Z,97083.41
2017-06-26T15:37:14.409Z,97078.58
2017-06-26T15:39:41.853Z,97069.59
2017-06-26T15:42:09.284Z,97075.52
2017-06-26T15:44:37.474Z,97074.27
2017-06-26T15:47:04.956Z,97076.30
2017-06-26T15:49:32.408Z,97067.72
2017-06-26T15:51:59.813Z,97068.20
2017-06-26T15:54:27.246Z,97062.57
2017-06-26T15:56:56.507Z,97055.25
2017-06-26T16:04:43.519Z,97043.66
2017-06-26T16:07:10.978Z,97039.00
2017-06-26T16:09:38.391Z,97037.19
2017-06-26T16:12:05.868Z,97036.02
2017-06-26T16:14:33.353Z,97028.86
2017-06-26T16:17:00.763Z,97031.34
2017-06-26T16:19:28.184Z,97023.33
2017-06-26T16:21:55.640Z,97029.33
2017-06-26T16:24:23.085Z,97025.27
2017-06-26T16:26:50.518Z,97024.13
2017-06-26T16:29:17.992Z,97030.44
2017-06-26T16:31:45.413Z,97031.78
2017-06-26T16:34:12.856Z,97031.98
2017-06-26T16:36:40.330Z,97032.02
2017-06-26T16:39:07.801Z,97029.30
2017-06-26T16:41:35.207Z,97030.32
2017-06-26T16:44:02.642Z,97029.97
2017-06-26T16:46:30.080Z,97022.40
2017-06-26T16:48:57.504Z,97022.68
2017-06-26T16:51:24.905Z,97025.51
2017-06-26T16:53:52.348Z,97025.35
2017-06-26T16:56:19.764Z,97019.03
2017-06-26T16:58:47.236Z,97025.35
2017-06-26T17:01:14.692Z,97021.16
2017-06-26T17:03:42.100Z,97017.64
2017-06-26T17:06:09.570Z,97019.74
2017-06-26T17:08:37.040Z,97012.90
2017-06-26T17:11:06.060Z,97019.91
2017-06-26T17:13:33.497Z,97019.91
2017-06-26T17:16:01.646Z,97022.77
2017-06-26T17:18:30.929Z,97026.16
2017-06-26T17:20:58.828Z,97026.91
2017-06-26T17:23:27.729Z,97024.80
2017-06-26T17:25:55.633Z,97022.50
2017-06-26T17:28:23.063Z,97031.71
2017-06-26T17:30:50.885Z,97029.01
2017-06-26T17:33:18.302Z,97039.25
2017-06-26T17:35:46.345Z,97041.40
2017-06-26T17:38:13.794Z,97049.80
2017-06-26T17:40:41.311Z,97048.64
2017-06-26T17:43:10.061Z,97041.66
2017-06-26T17:45:37.507Z,97046.00
2017-06-26T17:48:05.908Z,97048.81
2017-06-26T17:50:33.383Z,97040.75
2017-06-26T17:53:00.837Z,97038.18
2017-06-26T17:55:28.322Z,97034.93
2017-06-26T17:57:55.790Z,97027.41
2017-06-26T18:00:23.998Z,97025.62
2017-06-26T18:02:51.446Z,97024.09
2017-06-26T18:05:18.896Z,97024.94
2017-06-26T18:07:46.336Z,97025.62
2017-06-26T18:10:15.693Z,97030.17
2017-06-26T18:12:43.173Z,97038.66
2017-06-26T18:15:10.588Z,97043.16
2017-06-26T18:17:38.015Z,97049.01
2017-06-26T18:20:05.449Z,97048.05
2017-06-26T18:22:32.890Z,97049.09
2017-06-26T18:25:00.404Z,97051.83
2017-06-26T18:27:27.874Z,97052.72
2017-06-26T18:29:55.702Z,97054.59
2017-06-26T18:32:23.096Z,97053.24
2017-06-26T18:34:50.800Z,97049.98
2017-06-26T18:37:18.279Z,97049.98
2017-06-26T18:39:45.692Z,97053.52
2017-06-26T18:42:13.124Z,97051.61
2017-06-26T18:44:42.577Z,97053.44
2017-06-26T18:47:11.730Z,97054.41
2017-06-26T18:49:40.739Z,97049.14
2017-06-26T18:52:10.241Z,97043.45
2017-06-26T18:54:37.738Z,97043.25
2017-06-26T18:57:05.163Z,97040.77
2017-06-26T18:59:32.656Z,97041.34
2017-06-26T19:02:00.329Z,97039.78
2017-06-26T19:04:27.828Z,97040.03
2017-06-26T19:06:55.247Z,97035.52
2017-06-26T19:09:22.697Z,97044.92
2017-06-26T19:11:52.042Z,97049.95
2017-06-26T19:14:20.689Z,97046.62
2017-06-26T19:16:48.196Z,97055.97
2017-06-26T19:19:15.624Z,97053.84
2017-06-26T19:21:43.070Z,97057.30
2017-06-26T19:24:10.520Z,97061.09
2017-06-26T19:26:37.935Z,97057.45
2017-06-26T19:29:05.401Z,97061.13
2017-06-26T19:31:32.880Z,97062.59
2017-06-26T19:34:00.481Z,97062.50
2017-06-26T19:36:28.102Z,97067.17
2017-06-26T19:38:55.639Z,97069.66
2017-06-26T19:41:23.196Z,97073.77
2017-06-26T19:43:51.113Z,97083.97
2017-06-26T19:46:18.537Z,97084.69
2017-06-26T19:48:45.968Z,97089.39
2017-06-26T19:51:13.450Z,97086.11
2017-06-26T19:53:41.630Z,97087.03
2017-06-26T19:56:09.101Z,97083.56
2017-06-26T19:58:36.522Z,97087.47
2017-06-26T20:01:04.001Z,97088.63
2017-06-26T20:03:31.505Z,97091.28
2017-06-26T20:05:59.007Z,97088.56
2017-06-26T20:08:26.467Z,97088.52
2017-06-26T20:10:53.924Z,97094.64
2017-06-26T20:13:21.367Z,97086.79
2017-06-26T20:15:48.798Z,97091.03
2017-06-26T20:18:16.201Z,97092.44
2017-06-26T20:20:43.679Z,97093.22
2017-06-26T20:23:11.124Z,97095.03
2017-06-26T20:25:38.581Z,97084.02
2017-06-26T20:28:06.045Z,97088.64
2017-06-26T20:30:33.513Z,97086.31
2017-06-26T20:33:01.002Z,97090.72
2017-06-26T20:35:28.500Z,97095.94
2017-06-26T20:37:55.939Z,97100.09
2017-06-26T20:40:25.030Z,97098.77
2017-06-26T20:42:52.476Z,97097.98
2017-06-26T20:45:19.892Z,97096.83
2017-06-26T20:47:47.344Z,97108.27
2017-06-26T20:50:14.765Z,97103.56
2017-06-26T20:52:42.203Z,97106.39
2017-06-26T20:55:09.640Z,97114.11
2017-06-26T20:57:37.107Z,97108.40
2017-06-26T21:00:04.544Z,97113.50
2017-06-26T21:02:32.022Z,97110.95
2017-06-26T21:04:59.484Z,97115.39
2017-06-26T21:07:26.902Z,97115.56
2017-06-26T21:09:54.365Z,97112.00
2017-06-26T21:12:21.796Z,97113.02
2017-06-26T21:14:49.259Z,97121.22
2017-06-26T21:17:16.707Z,97124.89
2017-06-26T21:19:44.141Z,97122.03
2017-06-26T21:22:11.629Z,97128.70
2017-06-26T21:24:39.056Z,97127.47
2017-06-26T21:27:06.505Z,97119.14
2017-06-26T21:29:33.895Z,97124.70
2017-06-26T21:32:01.380Z,97123.15
2017-06-26T21:34:28.808Z,97120.23
2017-06-26T21:36:56.217Z,97120.81
2017-06-26T21:39:23.703Z,97113.77
2017-06-26T21:41:51.674Z,97103.69
2017-06-26T21:44:19.105Z,97112.34
2017-06-26T21:46:46.525Z,97109.39
2017-06-26T21:49:13.940Z,97106.55
2017-06-26T21:51:41.365Z,97108.70
2017-06-26T21:54:08.833Z,97111.39
2017-06-26T21:56:36.282Z,97107.26
2017-06-26T21:59:03.714Z,97105.20
2017-06-26T22:01:31.164Z,97109.86
2017-06-26T22:03:58.601Z,97111.47
2017-06-26T22:06:26.011Z,97124.48
2017-06-26T22:08:53.559Z,97131.86
2017-06-26T22:11:20.960Z,97147.25
2017-06-26T22:13:48.364Z,97185.42
2017-06-26T22:16:15.825Z,97206.44
2017-06-26T22:18:43.243Z,97220.52
2017-06-26T22:21:10.708Z,97227.78
2017-06-26T22:23:38.117Z,97241.80
2017-06-26T22:26:05.541Z,97241.58
2017-06-26T22:28:33.004Z,97264.37
2017-06-26T22:31:00.409Z,97294.39
2017-06-26T22:33:27.863Z,97324.73
